TAI YMAV-YMEN
Flight info
| Callsign | TAI |
|---|---|
| Flight time | 0h 21m |
| Altitude | 3000 |
| Route | BELTA YMML EN2NG |
| Aircraft | DC3/M-V/N |
Departure
| Time | 2026-04-15 10:44 |
|---|---|
| Airport | Melbourne Avalon International Airport (YMAV) |
Arrival
| Time | 2026-04-15 11:05 |
|---|---|
| Airport | Melbourne Essendon Airport (YMEN) |
| Time | Latitude | Longitude | Altitude | Speed | Heading |
|---|---|---|---|---|---|
| 2026-04-15 10:15 | -38.02726 | 144.47494 | 42 ft | 0 kts | 187° |
| 2026-04-15 10:40 | -38.02731 | 144.47494 | 42 ft | 4 kts | 187° |
| 2026-04-15 10:40 | -38.02787 | 144.47443 | 42 ft | 15 kts | 264° |
| 2026-04-15 10:40 | -38.02792 | 144.47296 | 41 ft | 16 kts | 274° |
| 2026-04-15 10:41 | -38.02771 | 144.47165 | 41 ft | 12 kts | 293° |
| 2026-04-15 10:41 | -38.02765 | 144.47148 | 41 ft | 0 kts | 295° |
| 2026-04-15 10:42 | -38.02759 | 144.47131 | 41 ft | 5 kts | 291° |
| 2026-04-15 10:42 | -38.02740 | 144.47034 | 40 ft | 13 kts | 278° |
| 2026-04-15 10:42 | -38.02771 | 144.46931 | 40 ft | 9 kts | 184° |
| 2026-04-15 10:42 | -38.02776 | 144.46931 | 40 ft | 0 kts | 186° |
| 2026-04-15 10:43 | -38.02863 | 144.46919 | 40 ft | 41 kts | 186° |
| 2026-04-15 10:43 | -38.03377 | 144.46834 | 35 ft | 100 kts | 188° |
| 2026-04-15 10:43 | -38.04127 | 144.46706 | 186 ft | 111 kts | 188° |
| 2026-04-15 10:43 | -38.04905 | 144.46552 | 547 ft | 114 kts | 191° |
| 2026-04-15 10:44 | -38.05669 | 144.46373 | 998 ft | 111 kts | 190° |
| 2026-04-15 10:44 | -38.06404 | 144.46634 | 1367 ft | 117 kts | 136° |
| 2026-04-15 10:44 | -38.06599 | 144.47601 | 1668 ft | 120 kts | 69° |
| 2026-04-15 10:44 | -38.06299 | 144.48538 | 2079 ft | 116 kts | 59° |
| 2026-04-15 10:45 | -38.05956 | 144.49461 | 2386 ft | 118 kts | 58° |
| 2026-04-15 10:45 | -38.05587 | 144.50447 | 2628 ft | 125 kts | 61° |
| 2026-04-15 10:45 | -38.05265 | 144.51457 | 2935 ft | 125 kts | 64° |
| 2026-04-15 10:45 | -38.04957 | 144.52576 | 3029 ft | 139 kts | 65° |
| 2026-04-15 10:46 | -38.04566 | 144.53726 | 3075 ft | 145 kts | 53° |
| 2026-04-15 10:46 | -38.03778 | 144.54494 | 3077 ft | 142 kts | 11° |
| 2026-04-15 10:46 | -38.02837 | 144.54784 | 3161 ft | 145 kts | 21° |
| 2026-04-15 10:46 | -38.01970 | 144.55460 | 3213 ft | 149 kts | 28° |
| 2026-04-15 10:47 | -38.01080 | 144.56206 | 3189 ft | 154 kts | 24° |
| 2026-04-15 10:47 | -38.00145 | 144.56862 | 3157 ft | 158 kts | 24° |
| 2026-04-15 10:47 | -37.99175 | 144.57584 | 3113 ft | 161 kts | 26° |
| 2026-04-15 10:47 | -37.98209 | 144.58357 | 3076 ft | 164 kts | 28° |
| 2026-04-15 10:48 | -37.97247 | 144.59117 | 3063 ft | 162 kts | 25° |
| 2026-04-15 10:48 | -37.96279 | 144.59850 | 3059 ft | 162 kts | 25° |
| 2026-04-15 10:48 | -37.95309 | 144.60591 | 3036 ft | 162 kts | 26° |
| 2026-04-15 10:48 | -37.94342 | 144.61337 | 3021 ft | 163 kts | 27° |
| 2026-04-15 10:49 | -37.93376 | 144.62097 | 3014 ft | 163 kts | 26° |
| 2026-04-15 10:49 | -37.92413 | 144.62840 | 3021 ft | 160 kts | 23° |
| 2026-04-15 10:49 | -37.91417 | 144.63452 | 2993 ft | 158 kts | 21° |
| 2026-04-15 10:49 | -37.90434 | 144.64066 | 3012 ft | 156 kts | 20° |
| 2026-04-15 10:50 | -37.89460 | 144.64644 | 2998 ft | 157 kts | 21° |
| 2026-04-15 10:50 | -37.88465 | 144.65271 | 2975 ft | 158 kts | 21° |
| 2026-04-15 10:50 | -37.87484 | 144.65906 | 2965 ft | 158 kts | 22° |
| 2026-04-15 10:50 | -37.86504 | 144.66527 | 2951 ft | 158 kts | 22° |
| 2026-04-15 10:51 | -37.85530 | 144.67188 | 2933 ft | 159 kts | 24° |
| 2026-04-15 10:51 | -37.84569 | 144.67842 | 2923 ft | 158 kts | 22° |
| 2026-04-15 10:51 | -37.83581 | 144.68469 | 2927 ft | 157 kts | 21° |
| 2026-04-15 10:51 | -37.82605 | 144.69051 | 2926 ft | 156 kts | 19° |
| 2026-04-15 10:52 | -37.81597 | 144.69611 | 2894 ft | 157 kts | 18° |
| 2026-04-15 10:52 | -37.80595 | 144.70145 | 2883 ft | 157 kts | 18° |
| 2026-04-15 10:52 | -37.79582 | 144.70650 | 2876 ft | 155 kts | 12° |
| 2026-04-15 10:52 | -37.78543 | 144.70850 | 2946 ft | 147 kts | 358° |
| 2026-04-15 10:53 | -37.77512 | 144.70926 | 2972 ft | 147 kts | 358° |
| 2026-04-15 10:53 | -37.76499 | 144.70975 | 2989 ft | 146 kts | 355° |
| 2026-04-15 10:53 | -37.75473 | 144.71002 | 3001 ft | 148 kts | 359° |
| 2026-04-15 10:53 | -37.74430 | 144.71123 | 3004 ft | 149 kts | 1° |
| 2026-04-15 10:54 | -37.73399 | 144.71300 | 3036 ft | 148 kts | 3° |
| 2026-04-15 10:54 | -37.72381 | 144.71416 | 3045 ft | 148 kts | 0° |
| 2026-04-15 10:54 | -37.71347 | 144.71533 | 3058 ft | 148 kts | 0° |
| 2026-04-15 10:54 | -37.70320 | 144.71629 | 3091 ft | 147 kts | 359° |
| 2026-04-15 10:55 | -37.69291 | 144.71709 | 3100 ft | 148 kts | 358° |
| 2026-04-15 10:55 | -37.68250 | 144.71768 | 3113 ft | 147 kts | 358° |
| 2026-04-15 10:55 | -37.67221 | 144.71828 | 3127 ft | 148 kts | 359° |
| 2026-04-15 10:55 | -37.66188 | 144.71913 | 3097 ft | 151 kts | 358° |
| 2026-04-15 10:56 | -37.65134 | 144.71992 | 3141 ft | 149 kts | 358° |
| 2026-04-15 10:56 | -37.64115 | 144.72086 | 3199 ft | 147 kts | 359° |
| 2026-04-15 10:56 | -37.63065 | 144.72206 | 3148 ft | 152 kts | 1° |
| 2026-04-15 10:56 | -37.62013 | 144.72357 | 3146 ft | 153 kts | 2° |
| 2026-04-15 10:57 | -37.60953 | 144.72556 | 3147 ft | 153 kts | 5° |
| 2026-04-15 10:57 | -37.58870 | 144.73169 | 3156 ft | 154 kts | 10° |
| 2026-04-15 10:57 | -37.57820 | 144.73561 | 3117 ft | 157 kts | 13° |
| 2026-04-15 10:58 | -37.56783 | 144.74016 | 3115 ft | 159 kts | 16° |
| 2026-04-15 10:58 | -37.55763 | 144.74527 | 3174 ft | 158 kts | 18° |
| 2026-04-15 10:58 | -37.54715 | 144.74968 | 3126 ft | 157 kts | 4° |
| 2026-04-15 10:58 | -37.53599 | 144.75076 | 3041 ft | 162 kts | 359° |
| 2026-04-15 10:59 | -37.52466 | 144.75183 | 3002 ft | 163 kts | 1° |
| 2026-04-15 10:59 | -37.51343 | 144.75371 | 3070 ft | 160 kts | 5° |
| 2026-04-15 10:59 | -37.50308 | 144.75882 | 3081 ft | 165 kts | 33° |
| 2026-04-15 10:59 | -37.49634 | 144.77029 | 3176 ft | 168 kts | 64° |
| 2026-04-15 11:00 | -37.49478 | 144.78499 | 3205 ft | 172 kts | 94° |
| 2026-04-15 11:00 | -37.49884 | 144.79925 | 3176 ft | 177 kts | 122° |
| 2026-04-15 11:00 | -37.50814 | 144.80882 | 3112 ft | 176 kts | 164° |
| 2026-04-15 11:00 | -37.52011 | 144.81190 | 3050 ft | 173 kts | 179° |
| 2026-04-15 11:01 | -37.53216 | 144.81258 | 2933 ft | 169 kts | 180° |
| 2026-04-15 11:01 | -37.54390 | 144.81358 | 2684 ft | 169 kts | 178° |
| 2026-04-15 11:01 | -37.55546 | 144.81587 | 2430 ft | 166 kts | 170° |
| 2026-04-15 11:01 | -37.56677 | 144.81867 | 2100 ft | 164 kts | 172° |
| 2026-04-15 11:02 | -37.57786 | 144.82089 | 1835 ft | 157 kts | 173° |
| 2026-04-15 11:02 | -37.58821 | 144.82275 | 1690 ft | 141 kts | 174° |
| 2026-04-15 11:02 | -37.59711 | 144.82446 | 1506 ft | 119 kts | 173° |
| 2026-04-15 11:02 | -37.60420 | 144.82584 | 1405 ft | 94 kts | 174° |
| 2026-04-15 11:03 | -37.61064 | 144.82681 | 1308 ft | 94 kts | 176° |
| 2026-04-15 11:03 | -37.61711 | 144.82800 | 1216 ft | 92 kts | 173° |
| 2026-04-15 11:03 | -37.62348 | 144.82918 | 1086 ft | 93 kts | 175° |
| 2026-04-15 11:03 | -37.62977 | 144.83015 | 917 ft | 88 kts | 175° |
| 2026-04-15 11:04 | -37.63576 | 144.83159 | 828 ft | 86 kts | 172° |
| 2026-04-15 11:04 | -37.64170 | 144.83278 | 717 ft | 86 kts | 173° |
| 2026-04-15 11:04 | -37.64756 | 144.83386 | 623 ft | 84 kts | 173° |
| 2026-04-15 11:04 | -37.65333 | 144.83493 | 513 ft | 82 kts | 173° |
| 2026-04-15 11:05 | -37.65869 | 144.83591 | 430 ft | 66 kts | 172° |
| 2026-04-15 11:05 | -37.66246 | 144.83664 | 418 ft | 45 kts | 171° |
| 2026-04-15 11:05 | -37.66477 | 144.83763 | 409 ft | 23 kts | 129° |
| 2026-04-15 11:05 | -37.66491 | 144.83890 | 406 ft | 16 kts | 45° |
| 2026-04-15 11:06 | -37.66376 | 144.83907 | 412 ft | 18 kts | 356° |
| 2026-04-15 11:06 | -37.66260 | 144.83874 | 417 ft | 18 kts | 356° |
| 2026-04-15 11:06 | -37.66095 | 144.83850 | 420 ft | 28 kts | 352° |
| 2026-04-15 11:06 | -37.65906 | 144.83817 | 424 ft | 19 kts | 353° |
| 2026-04-15 11:07 | -37.65789 | 144.83798 | 426 ft | 15 kts | 351° |
| 2026-04-15 11:07 | -37.65673 | 144.83771 | 428 ft | 16 kts | 350° |
| 2026-04-15 11:07 | -37.65582 | 144.83713 | 430 ft | 13 kts | 279° |
| 2026-04-15 11:07 | -37.65595 | 144.83614 | 432 ft | 10 kts | 258° |
| 2026-04-15 11:08 | -37.65664 | 144.83560 | 431 ft | 14 kts | 175° |
| 2026-04-15 11:08 | -37.65866 | 144.83597 | 426 ft | 58 kts | 172° |
| 2026-04-15 11:08 | -37.66450 | 144.83705 | 443 ft | 103 kts | 172° |
| 2026-04-15 11:08 | -37.67213 | 144.83824 | 699 ft | 116 kts | 174° |
| 2026-04-15 11:09 | -37.68032 | 144.83934 | 1056 ft | 123 kts | 174° |
| 2026-04-15 11:09 | -37.68903 | 144.84109 | 1398 ft | 129 kts | 171° |
| 2026-04-15 11:09 | -37.69643 | 144.84663 | 1566 ft | 121 kts | 122° |
| 2026-04-15 11:09 | -37.70002 | 144.85672 | 1530 ft | 115 kts | 112° |
| 2026-04-15 11:10 | -37.70257 | 144.86540 | 1432 ft | 104 kts | 110° |
| 2026-04-15 11:10 | -37.70493 | 144.87383 | 1403 ft | 99 kts | 110° |
| 2026-04-15 11:10 | -37.70695 | 144.88152 | 1140 ft | 90 kts | 108° |
| 2026-04-15 11:10 | -37.70862 | 144.88882 | 945 ft | 86 kts | 108° |
| 2026-04-15 11:11 | -37.71071 | 144.89601 | 781 ft | 86 kts | 117° |
| 2026-04-15 11:11 | -37.71496 | 144.90034 | 564 ft | 78 kts | 165° |
| 2026-04-15 11:11 | -37.72035 | 144.90079 | 321 ft | 75 kts | 178° |
| 2026-04-15 11:11 | -37.72477 | 144.90100 | 282 ft | 50 kts | 178° |
| 2026-04-15 11:12 | -37.72744 | 144.90103 | 276 ft | 25 kts | 198° |
| 2026-04-15 11:12 | -37.72783 | 144.90002 | 274 ft | 9 kts | 292° |
| 2026-04-15 11:12 | -37.72731 | 144.89981 | 275 ft | 11 kts | 0° |
| 2026-04-15 11:12 | -37.72620 | 144.89983 | 281 ft | 20 kts | 358° |
| 2026-04-15 11:13 | -37.72482 | 144.89957 | 280 ft | 20 kts | 339° |
| 2026-04-15 11:13 | -37.72369 | 144.89871 | 280 ft | 17 kts | 327° |
| 2026-04-15 11:13 | -37.72290 | 144.89825 | 281 ft | 0 kts | 102° |